createdAt,value
2019-04-06T00:01:40.568Z,4.73
2019-04-06T00:04:47.779Z,5.32
2019-04-06T00:07:54.846Z,5.33
2019-04-06T00:11:01.802Z,6.04
2019-04-06T00:14:09.007Z,5.28
2019-04-06T00:17:15.894Z,4.57
2019-04-06T00:20:22.743Z,4.71
2019-04-06T00:23:29.640Z,5.86
2019-04-06T00:26:36.659Z,4.94
2019-04-06T00:29:44.985Z,4.86
2019-04-06T00:32:59.008Z,4.18
2019-04-06T00:36:06.019Z,5.44
2019-04-06T00:39:13.004Z,4.31
2019-04-06T00:42:19.974Z,5.46
2019-04-06T00:45:26.832Z,4.46
2019-04-06T00:48:33.739Z,4.62
2019-04-06T00:51:40.580Z,4.11
2019-04-06T00:54:48.152Z,5.24
2019-04-06T00:57:55.021Z,5.04
2019-04-06T01:01:01.904Z,4.65
2019-04-06T01:04:08.812Z,4.82
2019-04-06T01:07:15.832Z,5.37
2019-04-06T01:10:22.880Z,5.28
2019-04-06T01:13:29.835Z,4.11
2019-04-06T01:16:37.049Z,4.01
2019-04-06T01:19:46.578Z,4.32
2019-04-06T01:22:53.426Z,4.18
2019-04-06T01:26:07.071Z,5.15
2019-04-06T01:29:08.890Z,5.13
2019-04-06T01:32:15.769Z,4.66
2019-04-06T01:35:22.754Z,4.43
2019-04-06T01:38:29.754Z,4.79
2019-04-06T01:41:36.605Z,4.53
2019-04-06T01:44:44.948Z,3.87
2019-04-06T01:47:54.959Z,4.21
2019-04-06T01:51:01.844Z,4.03
2019-04-06T01:54:08.750Z,4.41
2019-04-06T01:57:15.733Z,3.73
2019-04-06T02:00:22.584Z,4.20
2019-04-06T02:03:29.539Z,3.56
2019-04-06T02:06:36.401Z,3.03
2019-04-06T02:09:43.856Z,4.05
2019-04-06T02:12:52.341Z,4.25
2019-04-06T02:15:59.486Z,4.11
2019-04-06T02:19:07.501Z,3.33
2019-04-06T02:22:14.405Z,2.98
2019-04-06T02:25:21.319Z,3.66
2019-04-06T02:28:28.240Z,3.68
2019-04-06T02:31:52.760Z,3.81
2019-04-06T02:35:15.117Z,3.48
2019-04-06T02:38:37.657Z,3.15
2019-04-06T02:42:09.841Z,3.58
2019-04-06T02:45:16.914Z,2.95
2019-04-06T02:48:23.971Z,2.68
2019-04-06T02:51:31.250Z,2.88
2019-04-06T02:54:38.154Z,3.05
2019-04-06T02:57:45.512Z,3.37
2019-04-06T03:00:55.173Z,3.20
2019-04-06T03:04:03.095Z,2.91
2019-04-06T03:07:10.489Z,3.40
2019-04-06T03:10:17.377Z,3.06
2019-04-06T03:13:24.263Z,2.85
2019-04-06T03:16:31.351Z,3.17
2019-04-06T03:19:39.361Z,3.53
2019-04-06T03:22:47.590Z,3.04
2019-04-06T03:25:54.464Z,3.66
2019-04-06T03:29:01.410Z,3.75
2019-04-06T03:32:08.437Z,3.41
2019-04-06T03:35:15.381Z,3.74
2019-04-06T03:38:22.342Z,3.20
2019-04-06T03:41:29.197Z,3.47
2019-04-06T03:44:36.077Z,3.22
2019-04-06T03:47:44.050Z,3.36
2019-04-06T03:50:52.562Z,3.76
2019-04-06T03:53:59.529Z,3.68
2019-04-06T03:57:15.069Z,3.58
2019-04-06T04:00:15.038Z,3.01
2019-04-06T04:03:21.924Z,3.45
2019-04-06T04:06:28.777Z,3.09
2019-04-06T04:09:35.643Z,2.73
2019-04-06T04:12:43.090Z,3.14
2019-04-06T04:15:50.144Z,2.95
2019-04-06T04:18:56.991Z,2.90
2019-04-06T04:22:05.023Z,2.90
2019-04-06T04:25:11.883Z,3.40
2019-04-06T04:28:18.779Z,3.35
2019-04-06T04:31:26.600Z,2.97
2019-04-06T04:34:33.478Z,2.64
2019-04-06T04:37:40.327Z,2.52
2019-04-06T04:40:49.993Z,3.19
2019-04-06T04:43:57.418Z,2.78
2019-04-06T04:47:04.325Z,3.31
2019-04-06T04:50:11.460Z,3.84
2019-04-06T04:53:18.550Z,2.89
2019-04-06T04:56:25.480Z,2.24
2019-04-06T04:59:32.357Z,3.15
2019-04-06T05:02:39.202Z,2.72
2019-04-06T05:05:47.691Z,2.93
2019-04-06T05:08:55.857Z,2.82
2019-04-06T05:12:03.302Z,2.96
2019-04-06T05:15:13.110Z,3.39
2019-04-06T05:18:19.998Z,3.61
2019-04-06T05:21:26.883Z,3.59
2019-04-06T05:24:35.237Z,3.70
2019-04-06T05:27:51.784Z,4.09
2019-04-06T05:30:58.011Z,4.74
2019-04-06T05:34:04.858Z,4.69
2019-04-06T05:37:11.765Z,4.89
2019-04-06T05:40:21.582Z,4.97
2019-04-06T05:43:28.495Z,5.07
2019-04-06T05:46:35.451Z,5.17
2019-04-06T05:49:42.414Z,5.30
2019-04-06T05:52:49.264Z,5.34
2019-04-06T05:55:56.464Z,5.63
2019-04-06T05:59:03.334Z,5.61
2019-04-06T06:02:10.695Z,5.78
2019-04-06T06:05:17.832Z,6.28
2019-04-06T06:08:24.731Z,6.49
2019-04-06T06:11:34.111Z,6.71
2019-04-06T06:14:43.333Z,6.83
2019-04-06T06:17:50.241Z,7.19
2019-04-06T06:20:57.146Z,7.38
2019-04-06T06:24:03.999Z,7.42
2019-04-06T06:27:11.359Z,7.86
2019-04-06T06:30:18.202Z,8.42
2019-04-06T06:33:25.442Z,8.54
2019-04-06T06:36:33.372Z,8.71
2019-04-06T06:39:40.339Z,8.57
2019-04-06T06:42:48.352Z,8.77
2019-04-06T06:45:55.269Z,8.74
2019-04-06T06:49:02.333Z,9.03
2019-04-06T06:52:09.304Z,9.05
2019-04-06T06:55:16.195Z,9.32
2019-04-06T06:58:25.618Z,9.45
2019-04-06T07:01:31.740Z,9.56
2019-04-06T07:04:38.613Z,9.42
2019-04-06T07:07:49.800Z,9.45
2019-04-06T07:10:56.809Z,9.68
2019-04-06T07:14:03.748Z,9.76
2019-04-06T07:17:10.656Z,9.99
2019-04-06T07:20:17.589Z,10.23
2019-04-06T07:23:24.494Z,10.10
2019-04-06T07:26:31.474Z,10.31
2019-04-06T07:29:38.668Z,10.20
2019-04-06T07:32:48.486Z,10.46
2019-04-06T07:35:55.367Z,10.84
2019-04-06T07:39:02.256Z,11.03
2019-04-06T07:42:09.351Z,11.08
2019-04-06T07:45:16.441Z,11.11
2019-04-06T07:48:23.359Z,11.29
2019-04-06T07:51:30.440Z,11.46
2019-04-06T07:54:37.440Z,11.71
2019-04-06T07:57:47.538Z,11.87
2019-04-06T08:00:55.527Z,12.00
2019-04-06T08:04:02.427Z,12.36
2019-04-06T08:07:09.359Z,12.64
2019-04-06T08:10:17.277Z,12.72
2019-04-06T08:13:24.230Z,12.97
2019-04-06T08:16:31.093Z,13.21
2019-04-06T08:19:38.021Z,13.17
2019-04-06T08:22:46.278Z,13.18
2019-04-06T08:25:53.514Z,13.42
2019-04-06T08:29:02.461Z,13.47
2019-04-06T08:32:09.367Z,13.56
2019-04-06T08:35:25.124Z,13.56
2019-04-06T08:38:25.095Z,13.77
2019-04-06T08:41:31.967Z,13.61
2019-04-06T08:44:39.137Z,13.75
2019-04-06T08:47:48.357Z,13.91
2019-04-06T08:50:55.235Z,14.00
2019-04-06T08:54:02.205Z,14.17
2019-04-06T08:57:09.393Z,14.12
2019-04-06T09:00:16.706Z,14.57
2019-04-06T09:03:23.786Z,14.39
2019-04-06T09:06:31.015Z,14.30
2019-04-06T09:09:37.903Z,14.56
2019-04-06T09:12:46.893Z,14.68
2019-04-06T09:15:53.905Z,14.94
2019-04-06T09:19:01.027Z,14.96
2019-04-06T09:22:08.052Z,15.01
2019-04-06T09:25:15.003Z,15.16
2019-04-06T09:28:23.115Z,15.32
2019-04-06T09:31:30.291Z,15.54
2019-04-06T09:34:37.692Z,15.64
2019-04-06T09:37:44.740Z,15.94
2019-04-06T09:40:52.151Z,16.03
2019-04-06T09:43:59.194Z,16.00
2019-04-06T09:47:12.616Z,16.52
2019-04-06T09:50:35.650Z,16.80
2019-04-06T09:54:06.180Z,16.81
2019-04-06T09:57:27.040Z,16.94
2019-04-06T10:00:52.854Z,16.53
2019-04-06T10:04:18.952Z,17.14
2019-04-06T10:07:56.834Z,17.35
2019-04-06T10:11:34.836Z,17.19
2019-04-06T10:14:58.983Z,17.59
2019-04-06T10:18:27.736Z,17.61
2019-04-06T10:21:53.617Z,17.63
2019-04-06T10:25:37.717Z,17.23
2019-04-06T10:28:56.122Z,17.30
2019-04-06T10:32:26.002Z,17.56
2019-04-06T10:36:02.005Z,17.94
2019-04-06T10:39:30.818Z,17.81
2019-04-06T10:42:58.070Z,17.90
2019-04-06T10:46:12.613Z,18.02
2019-04-06T10:49:35.735Z,17.86
2019-04-06T10:52:59.563Z,17.71
2019-04-06T10:56:28.535Z,18.09
2019-04-06T10:59:44.005Z,18.11
2019-04-06T11:03:05.470Z,18.01
2019-04-06T11:06:23.925Z,18.09
2019-04-06T11:09:42.320Z,18.17
2019-04-06T11:13:26.656Z,17.83
2019-04-06T11:16:51.101Z,18.30
2019-04-06T11:20:15.980Z,17.91
2019-04-06T11:23:47.629Z,18.36
2019-04-06T11:27:13.407Z,18.45
2019-04-06T11:30:48.545Z,18.26
2019-04-06T11:34:26.823Z,18.59
2019-04-06T11:37:43.441Z,18.70
2019-04-06T11:41:04.968Z,17.89
2019-04-06T11:44:18.877Z,18.19
2019-04-06T11:47:54.156Z,18.99
2019-04-06T11:51:18.689Z,18.57
2019-04-06T11:54:47.246Z,18.42
2019-04-06T11:58:09.897Z,18.19
2019-04-06T12:01:26.289Z,18.39
2019-04-06T12:04:39.878Z,18.27
2019-04-06T12:08:06.130Z,18.23
2019-04-06T12:11:35.227Z,18.24
2019-04-06T12:14:58.909Z,18.68
2019-04-06T12:18:39.981Z,18.66
2019-04-06T12:22:08.513Z,18.47
2019-04-06T12:25:33.098Z,17.89
2019-04-06T12:29:00.531Z,17.74
2019-04-06T12:32:18.013Z,17.84
2019-04-06T12:35:53.710Z,17.70
2019-04-06T12:39:09.156Z,17.73
2019-04-06T12:42:41.624Z,17.58
2019-04-06T12:45:55.894Z,17.59
2019-04-06T12:49:13.090Z,17.56
2019-04-06T12:52:44.833Z,17.60
2019-04-06T12:56:10.586Z,17.74
2019-04-06T12:59:24.973Z,17.59
2019-04-06T13:03:03.809Z,17.77
2019-04-06T13:06:29.859Z,17.68
2019-04-06T13:09:50.012Z,17.42
2019-04-06T13:13:09.424Z,17.49
2019-04-06T13:16:35.272Z,17.69
2019-04-06T13:19:51.759Z,17.67
2019-04-06T13:23:26.772Z,17.72
2019-04-06T13:26:55.424Z,17.74
2019-04-06T13:30:20.052Z,17.61
2019-04-06T13:33:32.216Z,17.63
2019-04-06T13:36:55.102Z,17.41
2019-04-06T13:40:10.731Z,17.27
2019-04-06T13:43:43.866Z,17.28
2019-04-06T13:47:13.475Z,17.46
2019-04-06T13:50:43.221Z,17.35
2019-04-06T13:54:09.130Z,17.43
2019-04-06T13:57:22.317Z,17.24
2019-04-06T14:00:54.131Z,17.10
2019-04-06T14:04:28.794Z,16.62
2019-04-06T14:08:06.786Z,16.75
2019-04-06T14:11:45.191Z,16.66
2019-04-06T14:15:06.239Z,16.84
2019-04-06T14:18:41.950Z,16.87
2019-04-06T14:22:06.923Z,16.96
2019-04-06T14:25:31.697Z,17.09
2019-04-06T14:29:15.351Z,17.66
2019-04-06T14:33:01.225Z,17.74
2019-04-06T14:36:23.528Z,18.28
2019-04-06T14:39:49.587Z,18.70
2019-04-06T14:43:14.719Z,19.08
2019-04-06T14:46:37.633Z,18.91
2019-04-06T14:50:07.174Z,19.22
2019-04-06T14:53:39.439Z,19.03
2019-04-06T14:57:09.304Z,19.09
2019-04-06T15:00:38.357Z,18.41
2019-04-06T15:04:16.800Z,18.02
2019-04-06T15:07:48.562Z,17.71
2019-04-06T15:11:18.100Z,17.44
2019-04-06T15:14:33.590Z,17.26
2019-04-06T15:18:02.241Z,17.13
2019-04-06T15:21:17.934Z,17.37
2019-04-06T15:24:37.457Z,17.71
2019-04-06T15:28:02.874Z,18.04
2019-04-06T15:31:31.703Z,18.24
2019-04-06T15:34:58.001Z,18.50
2019-04-06T15:38:22.804Z,18.52
2019-04-06T15:41:54.766Z,18.49
2019-04-06T15:45:14.184Z,18.29
2019-04-06T15:48:40.100Z,17.72
2019-04-06T15:52:11.472Z,17.38
2019-04-06T15:55:22.528Z,17.32
2019-04-06T15:58:42.783Z,17.20
2019-04-06T16:02:08.559Z,17.10
2019-04-06T16:05:33.139Z,16.76
2019-04-06T16:08:45.962Z,16.77
2019-04-06T16:12:14.815Z,16.73
2019-04-06T16:15:40.742Z,16.68
2019-04-06T16:18:54.876Z,16.62
2019-04-06T16:22:19.678Z,16.46
2019-04-06T16:25:44.438Z,16.34
2019-04-06T16:29:16.104Z,16.28
2019-04-06T16:32:40.597Z,16.37
2019-04-06T16:36:11.386Z,16.27
2019-04-06T16:39:53.147Z,16.24
2019-04-06T16:43:28.247Z,16.20
2019-04-06T16:46:54.531Z,16.20
2019-04-06T16:50:18.097Z,16.22
2019-04-06T16:53:53.419Z,16.11
2019-04-06T16:57:25.042Z,16.05
2019-04-06T17:00:41.972Z,15.96
2019-04-06T17:04:06.897Z,15.93
2019-04-06T17:07:39.057Z,15.81
2019-04-06T17:10:52.987Z,15.78
2019-04-06T17:14:27.876Z,15.65
2019-04-06T17:17:52.626Z,15.76
2019-04-06T17:21:18.500Z,15.65
2019-04-06T17:24:31.716Z,15.17
2019-04-06T17:27:52.602Z,14.63
2019-04-06T17:31:05.929Z,15.15
2019-04-06T17:34:33.642Z,14.97
2019-04-06T17:38:03.469Z,14.83
2019-04-06T17:41:25.349Z,14.77
2019-04-06T17:45:00.236Z,14.52
2019-04-06T17:48:18.460Z,14.31
2019-04-06T17:51:48.549Z,14.10
2019-04-06T17:55:13.435Z,13.82
2019-04-06T17:58:39.601Z,13.33
2019-04-06T18:02:08.713Z,13.69
2019-04-06T18:05:29.088Z,13.47
2019-04-06T18:08:46.329Z,13.19
2019-04-06T18:12:01.926Z,13.38
2019-04-06T18:15:09.117Z,13.22
2019-04-06T18:18:16.538Z,12.89
2019-04-06T18:21:23.601Z,13.19
2019-04-06T18:24:41.065Z,13.21
2019-04-06T18:27:53.975Z,13.44
2019-04-06T18:31:20.222Z,13.72
2019-04-06T18:34:27.390Z,13.63
2019-04-06T18:37:45.901Z,13.62
2019-04-06T18:40:52.986Z,13.55
2019-04-06T18:44:01.502Z,13.55
2019-04-06T18:47:08.589Z,13.49
2019-04-06T18:50:16.190Z,13.47
2019-04-06T18:53:23.093Z,13.32
2019-04-06T18:56:29.977Z,13.30
2019-04-06T18:59:40.302Z,13.22
2019-04-06T19:02:49.181Z,13.06
2019-04-06T19:05:56.037Z,13.13
2019-04-06T19:09:02.970Z,13.08
2019-04-06T19:12:11.250Z,13.07
2019-04-06T19:15:19.181Z,13.10
2019-04-06T19:18:26.074Z,12.91
2019-04-06T19:21:33.151Z,12.76
2019-04-06T19:24:40.625Z,12.77
2019-04-06T19:27:47.490Z,12.77
2019-04-06T19:30:55.234Z,12.53
2019-04-06T19:34:02.370Z,12.61
2019-04-06T19:37:10.344Z,12.64
2019-04-06T19:40:17.793Z,12.62
2019-04-06T19:43:25.110Z,11.84
2019-04-06T19:46:33.970Z,11.92
2019-04-06T19:49:41.264Z,11.58
2019-04-06T19:52:49.581Z,11.02
2019-04-06T19:55:56.491Z,11.15
2019-04-06T19:59:03.380Z,11.62
2019-04-06T20:02:10.368Z,11.43
2019-04-06T20:05:17.222Z,11.61
2019-04-06T20:08:24.110Z,11.41
2019-04-06T20:11:31.011Z,11.57
2019-04-06T20:14:41.983Z,11.68
2019-04-06T20:17:48.852Z,11.61
2019-04-06T20:20:55.751Z,11.36
2019-04-06T20:24:02.614Z,10.55
2019-04-06T20:27:09.693Z,10.98
2019-04-06T20:30:17.253Z,10.91
2019-04-06T20:33:24.704Z,10.09
2019-04-06T20:36:31.697Z,9.89
2019-04-06T20:39:38.664Z,10.36
2019-04-06T20:42:45.980Z,10.35
2019-04-06T20:45:52.865Z,10.08
2019-04-06T20:49:00.119Z,9.51
2019-04-06T20:52:07.181Z,9.80
2019-04-06T20:55:15.450Z,10.06
2019-04-06T20:58:22.362Z,10.06
2019-04-06T21:01:31.122Z,9.53
2019-04-06T21:04:42.852Z,9.67
2019-04-06T21:07:49.725Z,10.00
2019-04-06T21:10:56.790Z,10.08
2019-04-06T21:14:03.626Z,9.58
2019-04-06T21:17:10.639Z,9.56
2019-04-06T21:20:17.498Z,9.88
2019-04-06T21:23:24.380Z,9.75
2019-04-06T21:26:34.170Z,9.56
2019-04-06T21:29:44.213Z,8.63
2019-04-06T21:32:51.465Z,8.93
2019-04-06T21:35:58.402Z,8.55
2019-04-06T21:39:08.326Z,8.55
2019-04-06T21:42:15.372Z,8.38
2019-04-06T21:45:23.423Z,8.55
2019-04-06T21:48:30.462Z,9.37
2019-04-06T21:51:37.885Z,9.60
2019-04-06T21:54:45.359Z,9.10
2019-04-06T21:57:53.185Z,8.51
2019-04-06T22:01:00.420Z,8.01
2019-04-06T22:04:08.186Z,9.08
2019-04-06T22:07:16.512Z,8.53
2019-04-06T22:10:23.387Z,9.04
2019-04-06T22:13:30.272Z,8.70
2019-04-06T22:16:37.137Z,8.77
2019-04-06T22:19:44.032Z,8.70
2019-04-06T22:22:50.911Z,8.45
2019-04-06T22:25:57.845Z,8.05
2019-04-06T22:29:04.833Z,8.74
2019-04-06T22:32:11.822Z,8.37
2019-04-06T22:35:19.189Z,7.90
2019-04-06T22:38:26.127Z,8.61
2019-04-06T22:41:32.963Z,8.99
2019-04-06T22:44:40.059Z,9.12
2019-04-06T22:47:47.292Z,9.29
2019-04-06T22:50:54.220Z,9.15
2019-04-06T22:54:01.279Z,9.03
2019-04-06T22:57:11.004Z,8.64
2019-04-06T23:00:28.190Z,8.93
2019-04-06T23:03:52.814Z,8.77
2019-04-06T23:07:06.371Z,8.65
2019-04-06T23:10:13.486Z,7.84
2019-04-06T23:13:20.361Z,8.48
2019-04-06T23:16:27.628Z,8.30
2019-04-06T23:19:34.549Z,8.36
2019-04-06T23:22:41.407Z,8.27
2019-04-06T23:25:48.256Z,7.95
2019-04-06T23:28:55.137Z,8.40
2019-04-06T23:32:02.029Z,8.52
2019-04-06T23:35:12.900Z,8.70
2019-04-06T23:38:20.160Z,8.53
2019-04-06T23:41:27.670Z,8.17
2019-04-06T23:44:34.650Z,8.08
2019-04-06T23:47:41.717Z,7.89
2019-04-06T23:50:48.629Z,7.64
2019-04-06T23:53:55.484Z,8.03
2019-04-06T23:57:02.603Z,8.56
